sensor_id;sensor_type;location;lat;lon;timestamp;pressure;altitude;pressure_sealevel;temperature;humidity
59116;BME280;53564;51.930;4.640;2022-07-22T00:00:57;102358.19;;;17.69;66.40
59116;BME280;53564;51.930;4.640;2022-07-22T00:03:22;102358.03;;;18.00;65.28
59116;BME280;53564;51.930;4.640;2022-07-22T00:05:48;102356.34;;;17.96;65.68
59116;BME280;53564;51.930;4.640;2022-07-22T00:08:13;102341.56;;;18.09;64.68
59116;BME280;53564;51.930;4.640;2022-07-22T00:10:38;102354.47;;;18.23;64.20
59116;BME280;53564;51.930;4.640;2022-07-22T00:13:03;102345.41;;;18.02;64.84
59116;BME280;53564;51.930;4.640;2022-07-22T00:15:29;102351.38;;;18.10;64.69
59116;BME280;53564;51.930;4.640;2022-07-22T00:17:54;102349.03;;;17.74;67.08
59116;BME280;53564;51.930;4.640;2022-07-22T00:20:19;102352.50;;;17.78;66.69
59116;BME280;53564;51.930;4.640;2022-07-22T00:22:45;102352.41;;;17.27;68.52
59116;BME280;53564;51.930;4.640;2022-07-22T00:25:10;102347.44;;;17.69;66.81
59116;BME280;53564;51.930;4.640;2022-07-22T00:27:35;102340.16;;;17.99;64.94
59116;BME280;53564;51.930;4.640;2022-07-22T00:30:01;102339.09;;;18.03;65.00
59116;BME280;53564;51.930;4.640;2022-07-22T00:32:26;102335.03;;;17.91;65.00
59116;BME280;53564;51.930;4.640;2022-07-22T00:34:51;102336.56;;;18.00;64.67
59116;BME280;53564;51.930;4.640;2022-07-22T00:37:17;102330.25;;;18.01;64.55
59116;BME280;53564;51.930;4.640;2022-07-22T00:39:42;102328.78;;;17.91;64.95
59116;BME280;53564;51.930;4.640;2022-07-22T00:42:07;102330.47;;;17.93;64.79
59116;BME280;53564;51.930;4.640;2022-07-22T00:44:32;102328.59;;;17.97;64.84
59116;BME280;53564;51.930;4.640;2022-07-22T00:46:58;102331.59;;;18.13;63.98
59116;BME280;53564;51.930;4.640;2022-07-22T00:49:23;102330.84;;;18.09;64.92
59116;BME280;53564;51.930;4.640;2022-07-22T00:51:48;102338.19;;;18.04;64.46
59116;BME280;53564;51.930;4.640;2022-07-22T00:54:14;102333.81;;;18.02;64.44
59116;BME280;53564;51.930;4.640;2022-07-22T00:56:39;102329.19;;;18.05;64.30
59116;BME280;53564;51.930;4.640;2022-07-22T00:59:08;102319.00;;;18.15;63.66
59116;BME280;53564;51.930;4.640;2022-07-22T01:01:34;102324.69;;;18.06;63.73
59116;BME280;53564;51.930;4.640;2022-07-22T01:03:59;102317.13;;;18.17;63.52
59116;BME280;53564;51.930;4.640;2022-07-22T01:06:25;102324.31;;;18.17;63.50
59116;BME280;53564;51.930;4.640;2022-07-22T01:08:50;102322.28;;;17.98;63.94
59116;BME280;53564;51.930;4.640;2022-07-22T01:11:18;102320.53;;;17.97;64.59
59116;BME280;53564;51.930;4.640;2022-07-22T01:13:45;102317.53;;;18.06;63.52
59116;BME280;53564;51.930;4.640;2022-07-22T01:16:12;102314.09;;;18.03;64.31
59116;BME280;53564;51.930;4.640;2022-07-22T01:18:38;102316.28;;;17.90;64.10
59116;BME280;53564;51.930;4.640;2022-07-22T01:21:05;102320.09;;;18.09;63.64
59116;BME280;53564;51.930;4.640;2022-07-22T01:23:31;102309.81;;;17.97;64.24
59116;BME280;53564;51.930;4.640;2022-07-22T01:25:57;102315.34;;;17.91;64.67
59116;BME280;53564;51.930;4.640;2022-07-22T01:28:22;102317.56;;;18.05;63.71
59116;BME280;53564;51.930;4.640;2022-07-22T01:30:48;102317.00;;;17.96;63.94
59116;BME280;53564;51.930;4.640;2022-07-22T01:33:15;102312.19;;;17.79;65.02
59116;BME280;53564;51.930;4.640;2022-07-22T01:35:41;102326.22;;;17.61;66.87
59116;BME280;53564;51.930;4.640;2022-07-22T01:38:06;102326.56;;;16.96;69.42
59116;BME280;53564;51.930;4.640;2022-07-22T01:40:31;102309.97;;;17.40;68.89
59116;BME280;53564;51.930;4.640;2022-07-22T01:42:57;102304.81;;;17.34;67.89
59116;BME280;53564;51.930;4.640;2022-07-22T01:45:22;102321.13;;;17.53;66.35
59116;BME280;53564;51.930;4.640;2022-07-22T01:47:47;102317.53;;;17.54;67.03
59116;BME280;53564;51.930;4.640;2022-07-22T01:50:12;102318.25;;;17.85;64.71
59116;BME280;53564;51.930;4.640;2022-07-22T01:52:39;102316.34;;;17.88;64.08
59116;BME280;53564;51.930;4.640;2022-07-22T01:55:08;102301.66;;;17.73;65.43
59116;BME280;53564;51.930;4.640;2022-07-22T01:57:35;102311.88;;;17.37;67.59
59116;BME280;53564;51.930;4.640;2022-07-22T02:00:01;102317.28;;;17.35;67.45
59116;BME280;53564;51.930;4.640;2022-07-22T02:02:26;102309.97;;;17.40;67.24
59116;BME280;53564;51.930;4.640;2022-07-22T02:04:51;102309.44;;;17.56;66.10
59116;BME280;53564;51.930;4.640;2022-07-22T02:07:16;102300.75;;;17.74;64.75
59116;BME280;53564;51.930;4.640;2022-07-22T02:09:42;102303.34;;;17.77;64.85
59116;BME280;53564;51.930;4.640;2022-07-22T02:12:07;102298.53;;;17.86;63.94
59116;BME280;53564;51.930;4.640;2022-07-22T02:14:33;102303.84;;;17.87;63.72
59116;BME280;53564;51.930;4.640;2022-07-22T02:16:58;102294.06;;;17.86;63.69
59116;BME280;53564;51.930;4.640;2022-07-22T02:19:23;102297.31;;;17.96;63.27
59116;BME280;53564;51.930;4.640;2022-07-22T02:21:49;102303.44;;;17.74;64.19
59116;BME280;53564;51.930;4.640;2022-07-22T02:24:14;102302.00;;;17.64;65.64
59116;BME280;53564;51.930;4.640;2022-07-22T02:26:39;102302.81;;;17.66;64.67
59116;BME280;53564;51.930;4.640;2022-07-22T02:29:05;102292.81;;;17.71;64.91
59116;BME280;53564;51.930;4.640;2022-07-22T02:31:30;102298.50;;;17.62;65.83
59116;BME280;53564;51.930;4.640;2022-07-22T02:33:55;102296.50;;;17.69;64.94
59116;BME280;53564;51.930;4.640;2022-07-22T02:36:21;102295.44;;;17.73;64.46
59116;BME280;53564;51.930;4.640;2022-07-22T02:38:46;102298.69;;;17.56;65.76
59116;BME280;53564;51.930;4.640;2022-07-22T02:41:11;102287.88;;;17.05;68.58
59116;BME280;53564;51.930;4.640;2022-07-22T02:43:37;102295.28;;;16.97;69.46
59116;BME280;53564;51.930;4.640;2022-07-22T02:46:02;102304.34;;;16.93;70.06
59116;BME280;53564;51.930;4.640;2022-07-22T02:48:27;102298.31;;;16.84;70.97
59116;BME280;53564;51.930;4.640;2022-07-22T02:50:53;102289.53;;;17.09;69.44
59116;BME280;53564;51.930;4.640;2022-07-22T02:53:24;102290.72;;;17.00;69.84
59116;BME280;53564;51.930;4.640;2022-07-22T02:55:49;102289.47;;;17.11;70.25
59116;BME280;53564;51.930;4.640;2022-07-22T02:58:15;102287.47;;;16.89;70.01
59116;BME280;53564;51.930;4.640;2022-07-22T03:00:40;102290.03;;;16.94;70.12
59116;BME280;53564;51.930;4.640;2022-07-22T03:03:05;102284.16;;;16.52;73.23
59116;BME280;53564;51.930;4.640;2022-07-22T03:05:31;102287.66;;;16.83;70.31
59116;BME280;53564;51.930;4.640;2022-07-22T03:07:56;102280.44;;;16.57;72.76
59116;BME280;53564;51.930;4.640;2022-07-22T03:10:22;102280.63;;;16.50;72.53
59116;BME280;53564;51.930;4.640;2022-07-22T03:12:47;102277.03;;;16.51;72.55
59116;BME280;53564;51.930;4.640;2022-07-22T03:15:12;102278.63;;;16.27;72.89
59116;BME280;53564;51.930;4.640;2022-07-22T03:17:38;102281.84;;;16.39;72.53
59116;BME280;53564;51.930;4.640;2022-07-22T03:20:08;102280.38;;;16.28;72.49
59116;BME280;53564;51.930;4.640;2022-07-22T03:22:33;102288.09;;;16.39;72.18
59116;BME280;53564;51.930;4.640;2022-07-22T03:25:00;102282.47;;;16.48;72.14
59116;BME280;53564;51.930;4.640;2022-07-22T03:27:25;102296.75;;;16.77;69.75
59116;BME280;53564;51.930;4.640;2022-07-22T03:29:51;102289.03;;;16.68;70.64
59116;BME280;53564;51.930;4.640;2022-07-22T03:32:17;102291.81;;;16.35;71.89
59116;BME280;53564;51.930;4.640;2022-07-22T03:34:43;102291.22;;;16.54;71.93
59116;BME280;53564;51.930;4.640;2022-07-22T03:37:08;102286.81;;;16.23;73.94
59116;BME280;53564;51.930;4.640;2022-07-22T03:39:33;102290.72;;;17.00;68.50
59116;BME280;53564;51.930;4.640;2022-07-22T03:41:59;102289.00;;;17.25;66.60
59116;BME280;53564;51.930;4.640;2022-07-22T03:44:24;102294.44;;;17.50;64.98
59116;BME280;53564;51.930;4.640;2022-07-22T03:46:49;102290.56;;;17.32;66.43
59116;BME280;53564;51.930;4.640;2022-07-22T03:49:15;102293.53;;;17.49;64.71
59116;BME280;53564;51.930;4.640;2022-07-22T03:51:40;102291.56;;;17.55;64.73
59116;BME280;53564;51.930;4.640;2022-07-22T03:54:06;102291.75;;;17.23;69.76
59116;BME280;53564;51.930;4.640;2022-07-22T03:56:31;102295.72;;;17.38;65.74
59116;BME280;53564;51.930;4.640;2022-07-22T03:58:56;102295.44;;;17.47;64.36
59116;BME280;53564;51.930;4.640;2022-07-22T04:01:22;102290.59;;;17.57;64.51
59116;BME280;53564;51.930;4.640;2022-07-22T04:03:47;102293.13;;;17.62;63.85
59116;BME280;53564;51.930;4.640;2022-07-22T04:06:13;102292.06;;;17.66;63.74
59116;BME280;53564;51.930;4.640;2022-07-22T04:08:39;102297.16;;;17.48;64.88
59116;BME280;53564;51.930;4.640;2022-07-22T04:11:04;102296.72;;;17.61;63.52
59116;BME280;53564;51.930;4.640;2022-07-22T04:13:29;102293.84;;;17.67;63.43
59116;BME280;53564;51.930;4.640;2022-07-22T04:15:55;102298.41;;;17.65;63.26
59116;BME280;53564;51.930;4.640;2022-07-22T04:18:20;102287.66;;;17.65;63.45
59116;BME280;53564;51.930;4.640;2022-07-22T04:20:45;102295.31;;;17.51;66.54
59116;BME280;53564;51.930;4.640;2022-07-22T04:23:11;102294.50;;;17.22;67.19
59116;BME280;53564;51.930;4.640;2022-07-22T04:25:38;102285.00;;;17.38;65.36
59116;BME280;53564;51.930;4.640;2022-07-22T04:28:04;102286.97;;;17.58;64.09
59116;BME280;53564;51.930;4.640;2022-07-22T04:30:29;102280.41;;;17.42;65.54
59116;BME280;53564;51.930;4.640;2022-07-22T04:32:54;102290.97;;;17.46;67.12
59116;BME280;53564;51.930;4.640;2022-07-22T04:35:20;102285.53;;;17.23;66.19
59116;BME280;53564;51.930;4.640;2022-07-22T04:37:45;102285.28;;;17.56;65.47
59116;BME280;53564;51.930;4.640;2022-07-22T04:40:11;102267.19;;;17.62;63.45
59116;BME280;53564;51.930;4.640;2022-07-22T04:42:36;102275.88;;;17.69;62.97
59116;BME280;53564;51.930;4.640;2022-07-22T04:45:02;102269.09;;;17.59;64.67
59116;BME280;53564;51.930;4.640;2022-07-22T04:47:28;102257.22;;;17.66;63.27
59116;BME280;53564;51.930;4.640;2022-07-22T04:49:53;102278.66;;;17.66;63.46
59116;BME280;53564;51.930;4.640;2022-07-22T04:52:18;102270.13;;;17.55;65.68
59116;BME280;53564;51.930;4.640;2022-07-22T04:54:44;102275.66;;;17.23;68.65
59116;BME280;53564;51.930;4.640;2022-07-22T04:57:09;102275.28;;;17.07;67.57
59116;BME280;53564;51.930;4.640;2022-07-22T04:59:34;102276.31;;;17.57;65.91
59116;BME280;53564;51.930;4.640;2022-07-22T05:02:00;102285.59;;;16.93;69.76
59116;BME280;53564;51.930;4.640;2022-07-22T05:04:25;102275.16;;;17.39;65.94
59116;BME280;53564;51.930;4.640;2022-07-22T05:06:50;102282.03;;;17.47;66.88
59116;BME280;53564;51.930;4.640;2022-07-22T05:09:15;102280.75;;;17.58;65.97
59116;BME280;53564;51.930;4.640;2022-07-22T05:11:41;102285.50;;;16.96;68.91
59116;BME280;53564;51.930;4.640;2022-07-22T05:14:06;102284.81;;;17.18;69.57
59116;BME280;53564;51.930;4.640;2022-07-22T05:16:31;102273.56;;;17.58;65.07
59116;BME280;53564;51.930;4.640;2022-07-22T05:18:56;102280.31;;;17.45;65.71
59116;BME280;53564;51.930;4.640;2022-07-22T05:21:22;102288.81;;;17.58;66.58
59116;BME280;53564;51.930;4.640;2022-07-22T05:23:47;102286.34;;;17.52;65.31
59116;BME280;53564;51.930;4.640;2022-07-22T05:26:12;102292.44;;;17.30;67.34
59116;BME280;53564;51.930;4.640;2022-07-22T05:28:38;102286.78;;;17.11;67.47
59116;BME280;53564;51.930;4.640;2022-07-22T05:31:03;102273.84;;;16.97;69.69
59116;BME280;53564;51.930;4.640;2022-07-22T05:33:28;102284.50;;;16.70;70.01
59116;BME280;53564;51.930;4.640;2022-07-22T05:35:54;102281.72;;;16.73;69.95
59116;BME280;53564;51.930;4.640;2022-07-22T05:38:19;102280.84;;;16.73;69.94
59116;BME280;53564;51.930;4.640;2022-07-22T05:40:44;102285.63;;;16.63;70.83
59116;BME280;53564;51.930;4.640;2022-07-22T05:43:10;102292.44;;;16.73;71.10
59116;BME280;53564;51.930;4.640;2022-07-22T05:45:35;102289.22;;;17.19;68.49
59116;BME280;53564;51.930;4.640;2022-07-22T05:48:00;102292.34;;;16.76;71.26
59116;BME280;53564;51.930;4.640;2022-07-22T05:50:26;102299.63;;;16.71;72.16
59116;BME280;53564;51.930;4.640;2022-07-22T05:52:51;102287.59;;;16.84;71.78
59116;BME280;53564;51.930;4.640;2022-07-22T05:55:17;102277.78;;;17.40;67.40
59116;BME280;53564;51.930;4.640;2022-07-22T05:57:42;102276.81;;;17.68;65.79
59116;BME280;53564;51.930;4.640;2022-07-22T06:00:08;102278.66;;;17.66;67.81
59116;BME280;53564;51.930;4.640;2022-07-22T06:02:33;102279.13;;;17.54;68.02
59116;BME280;53564;51.930;4.640;2022-07-22T06:04:58;102274.50;;;17.57;67.95
59116;BME280;53564;51.930;4.640;2022-07-22T06:07:26;102267.53;;;18.04;63.14
59116;BME280;53564;51.930;4.640;2022-07-22T06:09:51;102275.63;;;18.26;62.02
59116;BME280;53564;51.930;4.640;2022-07-22T06:12:17;102271.44;;;18.19;63.43
59116;BME280;53564;51.930;4.640;2022-07-22T06:14:42;102257.66;;;18.28;62.61
59116;BME280;53564;51.930;4.640;2022-07-22T06:17:07;102267.00;;;17.94;65.72
59116;BME280;53564;51.930;4.640;2022-07-22T06:19:33;102267.31;;;18.10;63.94
59116;BME280;53564;51.930;4.640;2022-07-22T06:21:58;102274.19;;;17.41;66.64
59116;BME280;53564;51.930;4.640;2022-07-22T06:24:23;102261.59;;;17.16;68.51
59116;BME280;53564;51.930;4.640;2022-07-22T06:26:49;102274.59;;;17.29;69.46
59116;BME280;53564;51.930;4.640;2022-07-22T06:29:14;102274.13;;;17.95;65.24
59116;BME280;53564;51.930;4.640;2022-07-22T06:31:40;102277.09;;;17.60;67.10
59116;BME280;53564;51.930;4.640;2022-07-22T06:34:05;102272.50;;;17.64;67.36
59116;BME280;53564;51.930;4.640;2022-07-22T06:36:31;102283.66;;;17.25;69.18
59116;BME280;53564;51.930;4.640;2022-07-22T06:38:57;102281.28;;;17.94;64.50
59116;BME280;53564;51.930;4.640;2022-07-22T06:41:22;102290.00;;;18.49;62.55
59116;BME280;53564;51.930;4.640;2022-07-22T06:43:47;102275.38;;;18.56;62.63
59116;BME280;53564;51.930;4.640;2022-07-22T06:46:13;102284.28;;;18.10;63.01
59116;BME280;53564;51.930;4.640;2022-07-22T06:48:38;102278.19;;;18.53;61.29
59116;BME280;53564;51.930;4.640;2022-07-22T06:51:03;102277.78;;;17.91;62.57
59116;BME280;53564;51.930;4.640;2022-07-22T06:53:29;102286.75;;;17.90;63.69
59116;BME280;53564;51.930;4.640;2022-07-22T06:55:54;102284.50;;;17.54;63.00
59116;BME280;53564;51.930;4.640;2022-07-22T06:58:19;102277.78;;;17.40;63.26
59116;BME280;53564;51.930;4.640;2022-07-22T07:00:45;102296.72;;;17.61;63.11
59116;BME280;53564;51.930;4.640;2022-07-22T07:03:11;102286.13;;;17.31;62.90
59116;BME280;53564;51.930;4.640;2022-07-22T07:05:36;102284.00;;;17.41;63.02
59116;BME280;53564;51.930;4.640;2022-07-22T07:08:01;102283.72;;;17.75;62.67
59116;BME280;53564;51.930;4.640;2022-07-22T07:10:27;102285.91;;;17.64;63.08
59116;BME280;53564;51.930;4.640;2022-07-22T07:12:57;102293.25;;;18.09;62.26
59116;BME280;53564;51.930;4.640;2022-07-22T07:15:24;102280.63;;;17.61;62.39
59116;BME280;53564;51.930;4.640;2022-07-22T07:17:49;102281.72;;;17.30;63.03
59116;BME280;53564;51.930;4.640;2022-07-22T07:20:15;102286.97;;;17.58;62.45
59116;BME280;53564;51.930;4.640;2022-07-22T07:22:40;102279.28;;;18.25;61.60
59116;BME280;53564;51.930;4.640;2022-07-22T07:25:07;102289.56;;;18.12;62.44
59116;BME280;53564;51.930;4.640;2022-07-22T07:27:34;102283.88;;;18.67;60.54
59116;BME280;53564;51.930;4.640;2022-07-22T07:29:59;102285.16;;;18.81;59.73
59116;BME280;53564;51.930;4.640;2022-07-22T07:32:24;102282.28;;;18.85;60.16
59116;BME280;53564;51.930;4.640;2022-07-22T07:34:50;102277.44;;;19.17;58.90
59116;BME280;53564;51.930;4.640;2022-07-22T07:37:15;102269.47;;;19.36;57.53
59116;BME280;53564;51.930;4.640;2022-07-22T07:39:40;102268.25;;;19.64;57.30
59116;BME280;53564;51.930;4.640;2022-07-22T07:42:06;102271.84;;;19.65;57.16
59116;BME280;53564;51.930;4.640;2022-07-22T07:44:31;102275.28;;;19.89;57.43
59116;BME280;53564;51.930;4.640;2022-07-22T07:46:56;102278.53;;;19.54;57.80
59116;BME280;53564;51.930;4.640;2022-07-22T07:49:22;102266.00;;;19.55;58.03
59116;BME280;53564;51.930;4.640;2022-07-22T07:51:48;102270.69;;;18.85;58.01
59116;BME280;53564;51.930;4.640;2022-07-22T07:54:13;102261.91;;;19.24;58.92
59116;BME280;53564;51.930;4.640;2022-07-22T07:56:38;102261.28;;;18.27;62.04
59116;BME280;53564;51.930;4.640;2022-07-22T07:59:04;102267.94;;;18.86;61.34
59116;BME280;53564;51.930;4.640;2022-07-22T08:01:29;102264.81;;;18.75;59.69
59116;BME280;53564;51.930;4.640;2022-07-22T08:03:54;102260.09;;;18.58;60.72
59116;BME280;53564;51.930;4.640;2022-07-22T08:06:20;102266.84;;;18.22;61.98
59116;BME280;53564;51.930;4.640;2022-07-22T08:08:45;102269.28;;;18.74;61.27
59116;BME280;53564;51.930;4.640;2022-07-22T08:11:10;102276.06;;;18.85;61.19
59116;BME280;53564;51.930;4.640;2022-07-22T08:13:35;102273.28;;;18.64;62.25
59116;BME280;53564;51.930;4.640;2022-07-22T08:16:01;102264.19;;;18.21;63.24
59116;BME280;53564;51.930;4.640;2022-07-22T08:18:27;102267.97;;;17.90;64.03
59116;BME280;53564;51.930;4.640;2022-07-22T08:20:53;102264.09;;;18.00;63.65
59116;BME280;53564;51.930;4.640;2022-07-22T08:23:18;102266.63;;;18.03;63.87
59116;BME280;53564;51.930;4.640;2022-07-22T08:25:44;102252.13;;;19.44;60.47
59116;BME280;53564;51.930;4.640;2022-07-22T08:28:09;102257.19;;;18.17;62.13
59116;BME280;53564;51.930;4.640;2022-07-22T08:30:34;102246.56;;;19.05;61.47
59116;BME280;53564;51.930;4.640;2022-07-22T08:33:00;102249.28;;;19.47;59.52
59116;BME280;53564;51.930;4.640;2022-07-22T08:35:25;102244.94;;;19.01;60.50
59116;BME280;53564;51.930;4.640;2022-07-22T08:37:50;102250.44;;;18.52;61.74
59116;BME280;53564;51.930;4.640;2022-07-22T08:40:17;102247.78;;;18.74;60.96
59116;BME280;53564;51.930;4.640;2022-07-22T08:42:43;102254.38;;;18.43;63.12
59116;BME280;53564;51.930;4.640;2022-07-22T08:45:09;102245.31;;;18.70;59.95
59116;BME280;53564;51.930;4.640;2022-07-22T08:47:35;102248.47;;;19.45;59.44
59116;BME280;53564;51.930;4.640;2022-07-22T08:50:02;102246.78;;;18.55;58.90
59116;BME280;53564;51.930;4.640;2022-07-22T08:52:28;102249.19;;;18.85;60.23
59116;BME280;53564;51.930;4.640;2022-07-22T08:54:54;102236.16;;;18.52;59.89
59116;BME280;53564;51.930;4.640;2022-07-22T08:57:19;102248.44;;;18.35;61.48
59116;BME280;53564;51.930;4.640;2022-07-22T08:59:55;102241.66;;;18.49;60.85
59116;BME280;53564;51.930;4.640;2022-07-22T09:02:22;102242.59;;;18.93;60.99
59116;BME280;53564;51.930;4.640;2022-07-22T09:05:03;102256.38;;;18.15;60.82
59116;BME280;53564;51.930;4.640;2022-07-22T09:07:34;102248.53;;;18.56;59.17
59116;BME280;53564;51.930;4.640;2022-07-22T09:10:03;102244.94;;;19.01;59.81
59116;BME280;53564;51.930;4.640;2022-07-22T09:12:29;102234.97;;;19.46;57.30
59116;BME280;53564;51.930;4.640;2022-07-22T09:14:58;102238.41;;;18.40;60.43
59116;BME280;53564;51.930;4.640;2022-07-22T09:19:57;102238.66;;;19.23;60.60
59116;BME280;53564;51.930;4.640;2022-07-22T09:22:39;102244.91;;;18.57;59.92
59116;BME280;53564;51.930;4.640;2022-07-22T09:27:44;102233.88;;;18.19;61.76
59116;BME280;53564;51.930;4.640;2022-07-22T09:30:21;102229.75;;;18.08;61.83
59116;BME280;53564;51.930;4.640;2022-07-22T09:32:47;102237.13;;;18.03;61.49
59116;BME280;53564;51.930;4.640;2022-07-22T09:35:14;102235.47;;;18.92;59.35
59116;BME280;53564;51.930;4.640;2022-07-22T09:37:56;102243.16;;;20.24;57.12
59116;BME280;53564;51.930;4.640;2022-07-22T09:40:27;102242.97;;;19.89;57.35
59116;BME280;53564;51.930;4.640;2022-07-22T09:43:15;102240.78;;;19.15;57.74
59116;BME280;53564;51.930;4.640;2022-07-22T09:45:49;102225.94;;;19.47;58.68
59116;BME280;53564;51.930;4.640;2022-07-22T09:48:19;102237.41;;;19.09;57.87
59116;BME280;53564;51.930;4.640;2022-07-22T09:50:46;102245.91;;;19.21;56.65
59116;BME280;53564;51.930;4.640;2022-07-22T09:53:11;102248.09;;;19.95;57.44
59116;BME280;53564;51.930;4.640;2022-07-22T09:55:38;102257.75;;;19.58;57.47
59116;BME280;53564;51.930;4.640;2022-07-22T09:58:04;102256.03;;;19.36;57.96
59116;BME280;53564;51.930;4.640;2022-07-22T10:00:30;102244.81;;;19.04;58.84
59116;BME280;53564;51.930;4.640;2022-07-22T10:03:00;102240.47;;;20.62;55.38
59116;BME280;53564;51.930;4.640;2022-07-22T10:05:35;102240.56;;;20.97;54.53
59116;BME280;53564;51.930;4.640;2022-07-22T10:08:03;102242.94;;;21.91;52.11
59116;BME280;53564;51.930;4.640;2022-07-22T10:10:30;102241.66;;;20.93;55.00
59116;BME280;53564;51.930;4.640;2022-07-22T10:12:59;102240.53;;;20.03;54.86
59116;BME280;53564;51.930;4.640;2022-07-22T10:15:25;102242.47;;;21.13;53.13
59116;BME280;53564;51.930;4.640;2022-07-22T10:17:53;102256.41;;;20.29;53.06
59116;BME280;53564;51.930;4.640;2022-07-22T10:20:23;102248.22;;;19.30;55.06
59116;BME280;53564;51.930;4.640;2022-07-22T10:22:55;102250.81;;;18.89;57.16
59116;BME280;53564;51.930;4.640;2022-07-22T10:25:22;102248.25;;;20.68;54.28
59116;BME280;53564;51.930;4.640;2022-07-22T10:27:56;102241.59;;;22.16;52.29
59116;BME280;53564;51.930;4.640;2022-07-22T10:30:25;102237.50;;;21.58;51.82
59116;BME280;53564;51.930;4.640;2022-07-22T10:33:12;102253.84;;;22.06;51.26
59116;BME280;53564;51.930;4.640;2022-07-22T10:35:53;102261.97;;;21.88;52.03
59116;BME280;53564;51.930;4.640;2022-07-22T10:38:19;102251.38;;;21.85;51.04
59116;BME280;53564;51.930;4.640;2022-07-22T10:43:16;102244.75;;;20.66;53.99
59116;BME280;53564;51.930;4.640;2022-07-22T10:45:47;102230.88;;;21.28;53.15
59116;BME280;53564;51.930;4.640;2022-07-22T10:50:47;102230.13;;;21.26;53.71
59116;BME280;53564;51.930;4.640;2022-07-22T10:58:41;102224.06;;;21.74;49.87
59116;BME280;53564;51.930;4.640;2022-07-22T11:01:09;102214.66;;;21.98;48.77
59116;BME280;53564;51.930;4.640;2022-07-22T11:03:36;102209.94;;;22.18;49.21
59116;BME280;53564;51.930;4.640;2022-07-22T11:06:20;102196.59;;;21.65;48.41
59116;BME280;53564;51.930;4.640;2022-07-22T11:08:50;102191.81;;;22.84;48.11
59116;BME280;53564;51.930;4.640;2022-07-22T11:11:16;102203.63;;;23.58;47.90
59116;BME280;53564;51.930;4.640;2022-07-22T11:13:42;102186.66;;;23.40;47.66
59116;BME280;53564;51.930;4.640;2022-07-22T11:16:24;102202.44;;;23.48;47.20
59116;BME280;53564;51.930;4.640;2022-07-22T11:18:58;102204.00;;;21.27;50.44
59116;BME280;53564;51.930;4.640;2022-07-22T11:21:28;102199.81;;;21.39;51.19
59116;BME280;53564;51.930;4.640;2022-07-22T11:23:55;102205.38;;;20.45;50.60
59116;BME280;53564;51.930;4.640;2022-07-22T11:26:43;102210.50;;;21.40;50.36
59116;BME280;53564;51.930;4.640;2022-07-22T11:29:17;102204.72;;;19.81;52.19
59116;BME280;53564;51.930;4.640;2022-07-22T11:31:43;102198.06;;;21.02;52.08
59116;BME280;53564;51.930;4.640;2022-07-22T11:34:12;102193.31;;;21.25;50.20
59116;BME280;53564;51.930;4.640;2022-07-22T11:36:40;102197.78;;;22.59;48.97
59116;BME280;53564;51.930;4.640;2022-07-22T11:39:07;102188.78;;;21.61;49.88
59116;BME280;53564;51.930;4.640;2022-07-22T11:41:33;102176.50;;;21.20;50.32
59116;BME280;53564;51.930;4.640;2022-07-22T11:43:59;102172.75;;;20.51;52.00
59116;BME280;53564;51.930;4.640;2022-07-22T11:46:25;102164.09;;;21.33;51.71
59116;BME280;53564;51.930;4.640;2022-07-22T11:48:52;102158.88;;;20.95;52.07
59116;BME280;53564;51.930;4.640;2022-07-22T11:51:17;102156.56;;;21.40;49.97
59116;BME280;53564;51.930;4.640;2022-07-22T11:53:43;102151.81;;;21.10;50.84
59116;BME280;53564;51.930;4.640;2022-07-22T11:56:09;102166.34;;;20.34;52.98
59116;BME280;53564;51.930;4.640;2022-07-22T11:58:46;102157.28;;;21.77;51.22
59116;BME280;53564;51.930;4.640;2022-07-22T12:01:13;102151.84;;;21.61;49.13
59116;BME280;53564;51.930;4.640;2022-07-22T12:03:44;102144.94;;;21.22;49.58
59116;BME280;53564;51.930;4.640;2022-07-22T12:06:11;102153.81;;;20.33;53.46
59116;BME280;53564;51.930;4.640;2022-07-22T12:08:45;102165.88;;;21.50;51.55
59116;BME280;53564;51.930;4.640;2022-07-22T12:11:13;102165.03;;;21.50;50.43
59116;BME280;53564;51.930;4.640;2022-07-22T12:13:44;102150.38;;;20.12;54.61
59116;BME280;53564;51.930;4.640;2022-07-22T12:16:24;102146.28;;;20.59;53.61
59116;BME280;53564;51.930;4.640;2022-07-22T12:18:51;102150.16;;;21.08;52.43
59116;BME280;53564;51.930;4.640;2022-07-22T12:21:16;102150.06;;;20.37;54.18
59116;BME280;53564;51.930;4.640;2022-07-22T12:23:49;102140.56;;;20.84;52.73
59116;BME280;53564;51.930;4.640;2022-07-22T12:26:15;102133.50;;;20.82;52.58
59116;BME280;53564;51.930;4.640;2022-07-22T12:28:40;102143.81;;;20.74;51.72
59116;BME280;53564;51.930;4.640;2022-07-22T12:31:05;102149.31;;;21.41;52.18
59116;BME280;53564;51.930;4.640;2022-07-22T12:33:31;102154.66;;;22.41;48.32
59116;BME280;53564;51.930;4.640;2022-07-22T12:36:01;102158.00;;;21.30;52.21
59116;BME280;53564;51.930;4.640;2022-07-22T12:38:27;102153.00;;;19.74;53.27
59116;BME280;53564;51.930;4.640;2022-07-22T12:40:53;102154.56;;;21.44;52.84
59116;BME280;53564;51.930;4.640;2022-07-22T12:43:24;102145.47;;;21.29;51.65
59116;BME280;53564;51.930;4.640;2022-07-22T12:45:49;102139.38;;;20.90;53.60
59116;BME280;53564;51.930;4.640;2022-07-22T12:48:15;102135.41;;;20.80;52.36
59116;BME280;53564;51.930;4.640;2022-07-22T12:53:15;102142.16;;;20.52;51.78
59116;BME280;53564;51.930;4.640;2022-07-22T12:55:43;102148.00;;;20.79;51.22
59116;BME280;53564;51.930;4.640;2022-07-22T12:58:10;102152.06;;;20.15;52.77
59116;BME280;53564;51.930;4.640;2022-07-22T13:00:38;102142.19;;;20.33;52.95
59116;BME280;53564;51.930;4.640;2022-07-22T13:03:05;102145.78;;;21.74;49.57
59116;BME280;53564;51.930;4.640;2022-07-22T13:05:30;102128.28;;;20.96;50.09